Time;durP1;ratioP1;P1;durP2;ratioP2;P2;SDS_P1;SDS_P2;PMS_P1;PMS_P2;Temp;Humidity;BMP_temperature;BMP_pressure;BME280_temperature;BME280_humidity;BME280_pressure;Samples;Min_cycle;Max_cycle;Signal;HPM_P1;HPM_P2
2021/04/17 00:01:59;;;;;;;11.03;6.80;;;;;;;7.05;55.62;95802.44;5090106;28;20192;-60
2021/04/17 00:04:28;;;;;;;16.87;7.50;;;;;;;7.07;56.03;95792.63;5090204;28;20219;-60
2021/04/17 00:06:55;;;;;;;11.10;6.70;;;;;;;7.07;55.96;95795.22;5090268;28;20267;-61
2021/04/17 00:09:24;;;;;;;11.80;6.93;;;;;;;7.05;56.66;95786.94;5090037;28;20195;-61
2021/04/17 00:11:53;;;;;;;6.47;4.50;;;;;;;7.01;55.94;95778.16;5089950;28;20561;-62
2021/04/17 00:14:23;;;;;;;7.77;5.27;;;;;;;6.96;56.74;95778.19;5090362;28;20184;-61
2021/04/17 00:16:51;;;;;;;7.70;5.70;;;;;;;6.96;56.50;95778.19;5089684;28;20266;-61
2021/04/17 00:19:17;;;;;;;8.13;5.33;;;;;;;6.97;56.48;95779.75;5090438;28;20243;-61
2021/04/17 00:21:44;;;;;;;8.10;6.17;;;;;;;6.96;56.63;95780.78;5089907;28;20200;-62
2021/04/17 00:24:11;;;;;;;8.00;5.77;;;;;;;6.93;57.35;95782.84;5090193;28;20283;-61
2021/04/17 00:26:38;;;;;;;8.10;5.87;;;;;;;6.97;57.54;95785.69;5089738;28;20231;-61
2021/04/17 00:29:07;;;;;;;8.90;5.70;;;;;;;7.06;57.93;95785.91;5090468;28;20195;-61
2021/04/17 00:31:37;;;;;;;7.50;5.30;;;;;;;7.04;58.34;95777.63;5090237;28;20192;-60
2021/04/17 00:34:07;;;;;;;6.73;4.63;;;;;;;7.11;58.42;95781.50;5090161;28;20230;-61
2021/04/17 00:36:34;;;;;;;8.83;4.90;;;;;;;7.08;59.29;95776.06;5089907;28;20654;-61
2021/04/17 00:39:00;;;;;;;5.57;4.37;;;;;;;7.09;60.57;95785.38;5089710;28;20203;-61
2021/04/17 00:41:27;;;;;;;8.50;5.07;;;;;;;7.23;61.11;95784.53;5089820;28;20278;-61
2021/04/17 00:43:54;;;;;;;9.37;5.17;;;;;;;7.17;61.88;95790.00;5089721;28;20705;-61
2021/04/17 00:46:22;;;;;;;10.23;5.87;;;;;;;7.23;64.08;95786.34;5090258;28;20274;-61
2021/04/17 00:48:49;;;;;;;10.20;6.63;;;;;;;7.23;67.48;95779.38;5089909;28;20274;-61
2021/04/17 00:51:16;;;;;;;10.53;6.33;;;;;;;7.31;70.50;95772.91;5089780;28;20195;-62
2021/04/17 00:53:43;;;;;;;8.87;6.60;;;;;;;7.19;74.11;95775.00;5089626;28;20218;-61
2021/04/17 00:56:12;;;;;;;8.33;6.40;;;;;;;7.04;78.18;95778.41;5089998;28;20211;-61
2021/04/17 00:58:40;;;;;;;8.73;6.50;;;;;;;6.97;81.15;95777.94;5089606;28;20188;-61
2021/04/17 01:01:08;;;;;;;8.23;6.33;;;;;;;6.93;82.17;95782.06;5090021;28;20275;-61
2021/04/17 01:03:43;;;;;;;8.07;6.40;;;;;;;6.97;82.97;95772.75;5089749;28;20199;-62
2021/04/17 01:06:19;;;;;;;10.60;7.23;;;;;;;6.91;84.81;95758.31;5089404;28;20229;-61
2021/04/17 01:08:53;;;;;;;8.77;7.33;;;;;;;6.86;85.37;95759.09;5089579;28;20280;-62
2021/04/17 01:11:28;;;;;;;9.40;7.70;;;;;;;6.77;86.45;95754.75;5089892;28;20191;-62
2021/04/17 01:13:56;;;;;;;7.60;6.50;;;;;;;6.80;85.61;95760.16;5089708;28;20281;-62
2021/04/17 01:16:24;;;;;;;9.77;6.87;;;;;;;6.70;87.08;95751.63;5091920;28;20313;-61
2021/04/17 01:18:53;;;;;;;9.50;7.03;;;;;;;6.67;89.05;95759.91;5092997;28;20708;-63
2021/04/17 01:21:21;;;;;;;9.43;7.00;;;;;;;6.61;88.51;95756.56;5093079;28;20571;-59
2021/04/17 01:23:51;;;;;;;9.67;7.13;;;;;;;6.62;88.90;95747.03;5093020;28;20202;-59
2021/04/17 01:26:22;;;;;;;9.73;6.97;;;;;;;6.43;90.09;95750.13;5092952;28;20224;-61
2021/04/17 01:28:51;;;;;;;8.20;6.97;;;;;;;6.36;91.42;95759.97;5093124;28;20670;-62
2021/04/17 01:31:22;;;;;;;10.50;7.77;;;;;;;6.41;91.01;95751.44;5092915;28;20195;-61
2021/04/17 01:33:53;;;;;;;11.80;7.53;;;;;;;6.42;89.90;95753.75;5092899;28;20203;-61
2021/04/17 01:36:22;;;;;;;12.17;7.17;;;;;;;6.28;91.65;95759.69;5092831;28;20196;-61
2021/04/17 01:38:52;;;;;;;7.47;5.90;;;;;;;6.44;89.56;95758.66;5093026;28;20202;-61
2021/04/17 01:41:23;;;;;;;7.67;6.23;;;;;;;6.24;90.69;95767.19;5093278;28;20249;-61
2021/04/17 01:43:53;;;;;;;9.17;6.50;;;;;;;6.20;91.38;95770.53;5092599;28;20205;-61
2021/04/17 01:46:24;;;;;;;8.07;6.20;;;;;;;6.21;93.01;95761.78;5093068;28;20227;-61
2021/04/17 01:48:55;;;;;;;6.37;5.53;;;;;;;6.25;92.74;95757.63;5092497;28;20745;-61
2021/04/17 01:51:23;;;;;;;7.63;6.13;;;;;;;6.09;94.40;95759.44;5092595;28;20207;-61
2021/04/17 01:53:51;;;;;;;9.53;6.50;;;;;;;6.10;95.94;95755.06;5092786;28;20268;-61
2021/04/17 01:56:21;;;;;;;7.97;6.70;;;;;;;6.07;96.00;95751.19;5092561;28;20212;-61
2021/04/17 01:58:50;;;;;;;7.13;6.43;;;;;;;6.02;97.33;95759.72;5092861;28;20229;-60
2021/04/17 02:01:19;;;;;;;9.27;6.83;;;;;;;6.01;97.13;95754.81;5092424;28;20218;-62
2021/04/17 02:03:47;;;;;;;8.07;6.90;;;;;;;5.97;98.50;95756.34;5092324;28;20191;-61
2021/04/17 02:06:14;;;;;;;7.47;6.50;;;;;;;5.98;98.67;95755.31;5092153;28;20710;-62
2021/04/17 02:08:42;;;;;;;8.67;6.67;;;;;;;6.00;98.20;95761.00;5092374;28;20286;-61
2021/04/17 02:11:09;;;;;;;9.73;6.73;;;;;;;5.89;100.00;95760.19;5092018;28;20683;-61
2021/04/17 02:13:39;;;;;;;7.93;6.00;;;;;;;5.83;99.83;95763.78;5092011;28;20196;-61
2021/04/17 02:16:11;;;;;;;6.83;5.83;;;;;;;6.03;99.03;95765.63;5091989;28;20727;-62
2021/04/17 02:18:49;;;;;;;7.13;6.13;;;;;;;5.87;100.00;95762.28;5092131;28;20606;-61
2021/04/17 02:21:22;;;;;;;7.93;6.67;;;;;;;5.85;99.83;95764.31;5091947;28;20253;-61
2021/04/17 02:23:49;;;;;;;9.67;7.30;;;;;;;5.70;100.00;95764.28;5092490;28;20286;-62
2021/04/17 02:26:16;;;;;;;10.20;7.87;;;;;;;5.63;100.00;95761.94;5091655;28;20291;-61
2021/04/17 02:28:44;;;;;;;8.03;6.70;;;;;;;5.64;100.00;95765.28;5091249;28;20224;-61
2021/04/17 02:31:12;;;;;;;8.17;7.10;;;;;;;5.62;100.00;95760.41;5091686;28;20200;-61
2021/04/17 02:33:39;;;;;;;7.23;6.10;;;;;;;5.61;100.00;95770.97;5091524;28;20195;-62
2021/04/17 02:36:06;;;;;;;7.47;6.47;;;;;;;5.62;100.00;95762.22;5091627;28;20200;-61
2021/04/17 02:38:33;;;;;;;7.23;6.30;;;;;;;5.72;100.00;95764.81;5091642;28;20195;-61
2021/04/17 02:41:00;;;;;;;9.40;6.53;;;;;;;5.61;100.00;95763.22;5092075;28;20203;-62
2021/04/17 02:43:27;;;;;;;8.43;6.93;;;;;;;5.53;100.00;95759.34;5091461;28;20233;-61
2021/04/17 02:45:55;;;;;;;11.50;6.33;;;;;;;5.56;100.00;95766.56;5091454;28;20239;-61
2021/04/17 02:48:25;;;;;;;7.20;6.27;;;;;;;5.52;100.00;95762.97;5091353;28;20658;-62
2021/04/17 02:50:52;;;;;;;7.47;6.03;;;;;;;5.56;100.00;95764.00;5091237;28;20215;-61
2021/04/17 02:53:19;;;;;;;7.77;6.00;;;;;;;5.61;100.00;95763.22;5091311;28;20188;-62
2021/04/17 02:55:45;;;;;;;9.20;7.00;;;;;;;5.43;100.00;95761.88;5091107;28;20589;-62
2021/04/17 02:58:12;;;;;;;8.23;6.70;;;;;;;5.40;100.00;95756.47;5091457;28;20212;-62
2021/04/17 03:00:39;;;;;;;7.17;6.37;;;;;;;5.54;100.00;95754.97;5091177;28;20201;-62
2021/04/17 03:03:07;;;;;;;8.57;7.20;;;;;;;5.50;100.00;95756.50;5091129;28;20231;-62
2021/04/17 03:05:34;;;;;;;10.03;7.90;;;;;;;5.51;100.00;95748.53;5091138;28;20326;-60
2021/04/17 03:08:01;;;;;;;10.43;7.87;;;;;;;5.48;100.00;95756.00;5087658;28;20203;-65
2021/04/17 03:10:28;;;;;;;13.30;8.83;;;;;;;5.44;100.00;95752.34;5103135;28;20199;-62
2021/04/17 03:12:55;;;;;;;10.50;8.13;;;;;;;5.43;100.00;95750.81;5111125;28;20224;-62
2021/04/17 03:15:21;;;;;;;10.10;8.00;;;;;;;5.56;100.00;95751.09;5110223;28;20237;-62
2021/04/17 03:17:48;;;;;;;10.37;8.53;;;;;;;5.55;100.00;95743.63;5096973;28;20209;-63
2021/04/17 03:20:17;;;;;;;13.37;9.27;;;;;;;5.58;100.00;95743.09;5090669;28;20327;-63
2021/04/17 03:22:44;;;;;;;12.70;8.10;;;;;;;5.58;100.00;95751.59;5089816;28;20276;-62
2021/04/17 03:25:12;;;;;;;9.20;7.67;;;;;;;5.58;100.00;95746.47;5089908;28;20766;-62
2021/04/17 03:27:40;;;;;;;14.40;10.47;;;;;;;5.29;100.00;95744.56;5089806;28;20188;-60
2021/04/17 03:30:09;;;;;;;13.23;10.40;;;;;;;5.25;100.00;95751.28;5089461;28;20207;-62
2021/04/17 03:32:36;;;;;;;12.57;10.37;;;;;;;5.09;100.00;95751.22;5089484;28;20245;-62
2021/04/17 03:35:04;;;;;;;13.53;10.00;;;;;;;4.91;100.00;95753.47;5089923;28;20244;-63
2021/04/17 03:37:31;;;;;;;11.20;10.03;;;;;;;4.81;100.00;95758.56;5089138;28;20308;-63
2021/04/17 03:39:58;;;;;;;12.03;9.93;;;;;;;4.59;100.00;95758.69;5088978;28;20192;-61
2021/04/17 03:42:25;;;;;;;13.90;10.50;;;;;;;4.48;100.00;95757.09;5089351;28;20275;-64
2021/04/17 03:44:52;;;;;;;13.20;9.53;;;;;;;4.47;100.00;95750.38;5089424;28;20196;-65
2021/04/17 03:47:19;;;;;;;13.67;10.60;;;;;;;4.38;100.00;95755.22;5088974;28;20318;-63
2021/04/17 03:49:46;;;;;;;13.63;10.87;;;;;;;4.35;100.00;95753.13;5089516;28;20283;-63
2021/04/17 03:52:13;;;;;;;12.80;10.27;;;;;;;4.39;100.00;95758.56;5088943;28;20646;-64
2021/04/17 03:54:42;;;;;;;11.47;9.80;;;;;;;4.33;100.00;95758.50;5089174;28;20751;-62
2021/04/17 03:57:10;;;;;;;15.50;11.00;;;;;;;4.32;100.00;95766.50;5088610;28;20199;-63
2021/04/17 03:59:36;;;;;;;12.90;10.70;;;;;;;4.37;100.00;95760.63;5070937;28;20223;-62
2021/04/17 04:02:03;;;;;;;16.93;11.07;;;;;;;4.28;100.00;95761.06;5071346;28;20660;-63
2021/04/17 04:04:30;;;;;;;17.00;12.57;;;;;;;4.23;100.00;95762.84;5088527;28;20192;-62
2021/04/17 04:06:57;;;;;;;12.83;10.90;;;;;;;4.13;100.00;95758.41;5088978;28;20277;-63
2021/04/17 04:09:24;;;;;;;13.67;10.50;;;;;;;4.26;100.00;95752.81;5089357;28;20194;-63
2021/04/17 04:11:55;;;;;;;16.47;11.57;;;;;;;4.23;100.00;95762.84;5089388;28;20341;-63
2021/04/17 04:14:22;;;;;;;15.50;12.00;;;;;;;4.22;100.00;95762.06;5089258;28;20629;-63
2021/04/17 04:16:49;;;;;;;14.07;10.83;;;;;;;4.20;100.00;95753.81;5102674;28;20250;-64
2021/04/17 04:19:15;;;;;;;15.47;11.33;;;;;;;4.26;100.00;95755.41;5108349;28;20199;-62
2021/04/17 04:21:42;;;;;;;18.93;12.83;;;;;;;4.22;100.00;95749.19;5109288;28;20213;-63
2021/04/17 04:24:10;;;;;;;17.10;12.67;;;;;;;4.27;100.00;95749.22;5109159;28;20202;-62
2021/04/17 04:26:37;;;;;;;16.40;12.57;;;;;;;4.35;100.00;95750.56;5109110;28;20321;-62
2021/04/17 04:29:05;;;;;;;16.50;12.47;;;;;;;4.25;100.00;95751.28;5108990;28;20762;-64
2021/04/17 04:31:32;;;;;;;18.50;14.43;;;;;;;4.29;100.00;95742.03;5109814;28;20227;-63
2021/04/17 04:33:59;;;;;;;21.37;15.27;;;;;;;4.37;100.00;95745.19;5108067;28;20562;-64
2021/04/17 04:36:26;;;;;;;22.83;16.63;;;;;;;4.29;100.00;95741.25;5108938;28;20203;-64
2021/04/17 04:38:53;;;;;;;20.97;15.13;;;;;;;4.43;100.00;95739.03;5109209;28;20202;-63
2021/04/17 04:41:20;;;;;;;21.87;15.30;;;;;;;4.46;100.00;95733.41;5109519;28;20199;-62
2021/04/17 04:43:47;;;;;;;19.73;14.47;;;;;;;4.30;100.00;95717.09;5109327;28;20283;-65
2021/04/17 04:46:15;;;;;;;20.00;15.90;;;;;;;4.43;100.00;95726.19;5108975;28;20231;-65
2021/04/17 04:48:42;;;;;;;21.83;16.57;;;;;;;4.48;100.00;95715.91;5107649;28;20208;-62
2021/04/17 04:51:10;;;;;;;24.50;17.17;;;;;;;4.51;100.00;95712.84;5111252;28;20195;-64
2021/04/17 04:53:37;;;;;;;50.40;28.70;;;;;;;4.52;100.00;95701.53;5113099;28;20187;-63
2021/04/17 04:56:04;;;;;;;24.83;17.43;;;;;;;4.55;100.00;95698.44;5113517;28;20272;-62
2021/04/17 04:58:31;;;;;;;23.27;17.23;;;;;;;4.50;100.00;95708.72;5107095;28;20616;-62
2021/04/17 05:00:58;;;;;;;36.13;21.50;;;;;;;4.51;100.00;95703.31;5092280;28;20195;-63
2021/04/17 05:03:26;;;;;;;34.43;22.53;;;;;;;4.62;100.00;95714.44;5092601;28;20199;-62
2021/04/17 05:05:52;;;;;;;26.30;17.93;;;;;;;4.68;100.00;95716.78;5092277;28;20229;-62
2021/04/17 05:08:19;;;;;;;24.73;17.10;;;;;;;4.75;100.00;95721.72;5092515;28;20203;-63
2021/04/17 05:10:46;;;;;;;23.97;16.80;;;;;;;4.82;100.00;95719.69;5092411;28;20256;-63
2021/04/17 05:13:13;;;;;;;25.30;17.77;;;;;;;4.80;100.00;95711.44;5092390;28;20723;-65
2021/04/17 05:15:39;;;;;;;21.80;16.13;;;;;;;4.87;100.00;95722.28;5092179;28;20612;-62
2021/04/17 05:18:06;;;;;;;26.67;18.07;;;;;;;4.84;100.00;95722.78;5091317;28;20255;-64
2021/04/17 05:20:34;;;;;;;26.33;17.40;;;;;;;4.92;100.00;95719.75;5091744;28;20200;-64
2021/04/17 05:23:01;;;;;;;23.83;16.50;;;;;;;4.88;100.00;95716.09;5091700;28;20200;-64
2021/04/17 05:25:28;;;;;;;22.47;16.70;;;;;;;4.91;100.00;95719.97;5092098;28;20191;-64
2021/04/17 05:27:55;;;;;;;29.30;19.00;;;;;;;5.00;100.00;95721.03;5092119;28;20248;-62
2021/04/17 05:30:23;;;;;;;28.80;18.37;;;;;;;4.93;100.00;95721.28;5091638;28;20661;-63
2021/04/17 05:32:50;;;;;;;25.83;19.77;;;;;;;5.02;100.00;95724.94;5090725;28;20279;-62
2021/04/17 05:35:17;;;;;;;23.83;17.50;;;;;;;5.10;100.00;95726.22;5091926;28;20201;-64
2021/04/17 05:37:45;;;;;;;28.33;19.77;;;;;;;5.04;100.00;95719.50;5091681;28;20226;-63
2021/04/17 05:40:12;;;;;;;25.20;19.53;;;;;;;5.12;100.00;95727.53;5107494;28;20203;-64
2021/04/17 05:42:39;;;;;;;29.60;20.60;;;;;;;5.08;100.00;95725.72;5111849;28;20195;-64
2021/04/17 05:45:07;;;;;;;31.60;23.17;;;;;;;5.09;99.05;95729.84;5111607;28;20198;-63
2021/04/17 05:47:34;;;;;;;33.90;25.27;;;;;;;5.12;100.00;95719.81;5110134;28;20705;-61
2021/04/17 05:50:01;;;;;;;34.17;23.50;;;;;;;5.09;99.25;95720.31;5111684;28;20282;-62
2021/04/17 05:52:28;;;;;;;28.17;20.23;;;;;;;5.02;99.79;95719.78;5111548;28;20192;-63
2021/04/17 05:54:55;;;;;;;28.30;20.00;;;;;;;5.08;100.00;95721.31;5111762;28;20248;-63
2021/04/17 05:57:22;;;;;;;38.73;22.87;;;;;;;5.15;99.77;95723.69;5112059;28;20293;-63
2021/04/17 05:59:49;;;;;;;33.70;20.53;;;;;;;5.15;99.73;95724.44;5111642;28;20207;-62
2021/04/17 06:02:15;;;;;;;34.67;21.37;;;;;;;5.13;100.00;95716.19;5111448;28;20203;-62
2021/04/17 06:04:42;;;;;;;31.40;20.87;;;;;;;5.26;99.38;95719.34;5111579;28;20610;-63
2021/04/17 06:07:09;;;;;;;36.13;23.17;;;;;;;5.33;98.64;95715.47;5111872;28;20815;-62
2021/04/17 06:09:36;;;;;;;31.23;20.90;;;;;;;5.44;98.19;95718.84;5111640;28;20199;-63
2021/04/17 06:12:05;;;;;;;35.43;21.87;;;;;;;5.41;98.38;95715.00;5111858;28;20637;-61
2021/04/17 06:14:32;;;;;;;40.93;24.30;;;;;;;5.36;98.30;95720.13;5110984;28;20681;-62
2021/04/17 06:16:58;;;;;;;32.60;21.83;;;;;;;5.34;98.84;95713.66;5111378;28;20237;-63
2021/04/17 06:19:25;;;;;;;25.03;19.10;;;;;;;5.31;97.78;95724.50;5110069;28;20203;-62
2021/04/17 06:21:52;;;;;;;30.27;20.37;;;;;;;5.33;98.08;95715.47;5110836;28;20668;-62
2021/04/17 06:24:19;;;;;;;24.30;17.80;;;;;;;5.29;99.01;95717.00;5111390;28;20287;-63
2021/04/17 06:26:45;;;;;;;23.80;17.57;;;;;;;5.29;98.49;95708.50;5111162;28;20233;-63
2021/04/17 06:29:13;;;;;;;27.07;19.97;;;;;;;5.29;98.90;95708.50;5111306;28;20192;-61
2021/04/17 06:31:40;;;;;;;41.20;24.30;;;;;;;5.35;98.17;95708.28;5111049;28;20339;-62
2021/04/17 06:34:07;;;;;;;36.97;24.07;;;;;;;5.39;98.91;95700.81;5110194;28;20746;-63
2021/04/17 06:36:34;;;;;;;34.17;21.60;;;;;;;5.40;98.49;95699.78;5110662;28;20188;-63
2021/04/17 06:39:01;;;;;;;34.30;21.60;;;;;;;5.60;98.03;95702.38;5111333;28;20191;-62
2021/04/17 06:41:33;;;;;;;36.70;24.10;;;;;;;5.56;98.27;95701.34;5110926;28;20227;-62
2021/04/17 06:44:02;;;;;;;36.00;23.43;;;;;;;5.67;97.56;95699.56;5111155;28;20741;-63
2021/04/17 06:46:32;;;;;;;39.50;25.07;;;;;;;5.69;97.42;95707.81;5110333;28;20227;-61
2021/04/17 06:49:01;;;;;;;42.87;24.77;;;;;;;5.81;96.81;95706.53;5109531;28;20241;-62
2021/04/17 06:51:30;;;;;;;54.93;30.43;;;;;;;5.74;97.25;95706.00;5110469;28;20704;-62
2021/04/17 06:53:57;;;;;;;49.03;29.23;;;;;;;5.80;97.73;95704.22;5110801;28;20198;-64
2021/04/17 06:56:24;;;;;;;51.90;30.33;;;;;;;5.86;97.31;95698.81;5110940;28;20218;-63
2021/04/17 06:58:52;;;;;;;42.87;30.23;;;;;;;5.85;98.45;95699.84;5110543;27;20191;-63
2021/04/17 07:01:19;;;;;;;44.00;28.37;;;;;;;5.91;98.32;95695.47;5110457;28;20187;-63
2021/04/17 07:03:50;;;;;;;38.43;24.37;;;;;;;6.01;97.35;95693.69;5109367;28;20205;-61
2021/04/17 07:06:17;;;;;;;69.63;34.90;;;;;;;6.08;97.20;95685.66;5110359;28;20230;-61
2021/04/17 07:08:44;;;;;;;31.87;21.40;;;;;;;6.01;97.99;95688.53;5110481;28;20238;-64
2021/04/17 07:11:12;;;;;;;31.23;19.40;;;;;;;6.17;97.65;95688.50;5110589;28;20198;-62
2021/04/17 07:13:38;;;;;;;32.20;20.30;;;;;;;6.20;99.34;95687.97;5109479;28;20198;-61
2021/04/17 07:16:08;;;;;;;28.10;17.83;;;;;;;6.18;100.00;95683.06;5088215;28;20316;-62
2021/04/17 07:18:36;;;;;;;71.60;36.97;;;;;;;6.30;100.00;95687.97;5089094;28;20192;-62
2021/04/17 07:21:28;;;;;;;45.93;25.23;;;;;;;6.36;100.00;95692.88;5089159;28;20724;-62
2021/04/17 07:23:56;;;;;;;23.73;15.03;;;;;;;6.43;100.00;95692.56;5090583;28;20199;-62
2021/04/17 07:26:25;;;;;;;24.03;15.33;;;;;;;6.50;98.87;95682.75;5089879;28;20303;-64
2021/04/17 07:29:13;;;;;;;17.43;12.90;;;;;;;6.60;98.41;95689.69;5089528;28;20207;-63
2021/04/17 07:31:49;;;;;;;87.37;41.43;;;;;;;6.61;98.89;95694.59;5089616;28;20233;-63
2021/04/17 07:34:17;;;;;;;53.63;28.40;;;;;;;6.71;98.95;95694.56;5088665;28;20202;-63
2021/04/17 07:36:54;;;;;;;33.17;18.57;;;;;;;6.71;98.74;95689.41;5090410;28;20195;-63
2021/04/17 07:39:35;;;;;;;42.67;25.33;;;;;;;6.80;98.29;95690.41;5089505;28;20204;-62
2021/04/17 07:42:05;;;;;;;81.80;43.07;;;;;;;6.76;98.32;95689.41;5089096;28;20234;-64
2021/04/17 07:44:35;;;;;;;105.93;51.37;;;;;;;6.80;99.08;95682.66;5088126;28;20204;-62
2021/04/17 07:47:02;;;;;;;211.37;96.47;;;;;;;6.86;99.68;95686.78;5089164;28;20318;-64
2021/04/17 07:49:29;;;;;;;361.37;183.47;;;;;;;6.98;99.28;95688.25;5088924;28;20199;-62
2021/04/17 07:52:04;;;;;;;262.03;136.40;;;;;;;6.96;98.03;95692.94;5089567;28;20689;-62
2021/04/17 07:54:32;;;;;;;162.77;90.87;;;;;;;6.93;96.82;95692.41;5088847;28;20235;-62
2021/04/17 07:57:05;;;;;;;524.13;342.43;;;;;;;6.98;95.29;95694.19;5089296;28;20228;-61
2021/04/17 07:59:32;;;;;;;411.17;198.00;;;;;;;6.93;94.96;95697.59;5089537;28;20674;-62
2021/04/17 08:01:59;;;;;;;313.53;155.43;;;;;;;6.86;94.20;95697.09;5088291;28;20200;-60
2021/04/17 08:04:28;;;;;;;99.17;60.93;;;;;;;6.87;95.49;95693.47;5087850;28;20265;-63
2021/04/17 08:06:56;;;;;;;142.80;89.90;;;;;;;6.99;95.42;95682.84;5089219;28;20326;-64
2021/04/17 08:09:25;;;;;;;70.17;41.33;;;;;;;7.04;95.07;95682.03;5089551;28;20195;-61
2021/04/17 08:11:54;;;;;;;54.93;32.17;;;;;;;7.09;96.56;95679.44;5088938;28;20246;-61
2021/04/17 08:14:23;;;;;;;51.13;31.70;;;;;;;7.14;96.61;95674.22;5088502;28;20203;-63
2021/04/17 08:16:51;;;;;;;72.37;45.80;;;;;;;7.19;96.12;95674.97;5089112;28;20864;-62
2021/04/17 08:19:20;;;;;;;126.60;71.73;;;;;;;7.18;96.30;95673.44;5087702;28;20203;-61
2021/04/17 08:21:48;;;;;;;92.37;52.97;;;;;;;7.14;96.86;95677.59;5088877;28;20222;-62
2021/04/17 08:24:20;;;;;;;99.73;54.40;;;;;;;7.17;96.48;95665.97;5089356;28;20196;-60
2021/04/17 08:26:48;;;;;;;89.60;50.60;;;;;;;7.11;97.39;95659.28;5092168;28;20284;-64
2021/04/17 08:29:43;;;;;;;57.23;35.97;;;;;;;7.18;98.02;95655.34;5092932;28;20666;-63
2021/04/17 08:32:23;;;;;;;105.97;53.77;;;;;;;7.11;99.48;95646.34;5093300;28;20202;-63
2021/04/17 08:35:02;;;;;;;113.57;56.50;;;;;;;7.28;100.00;95641.59;5090923;28;20207;-63
2021/04/17 08:37:30;;;;;;;65.67;41.83;;;;;;;7.28;99.95;95649.34;5093620;28;20222;-65
2021/04/17 08:39:58;;;;;;;53.20;33.17;;;;;;;7.35;100.00;95645.44;5093087;28;20227;-63
2021/04/17 08:42:44;;;;;;;44.93;28.83;;;;;;;7.41;100.00;95646.19;5092362;28;20283;-62
2021/04/17 08:45:16;;;;;;;37.00;23.53;;;;;;;7.43;100.00;95646.66;5092475;28;20210;-63
2021/04/17 08:48:01;;;;;;;38.50;25.10;;;;;;;7.37;100.00;95636.66;5092106;28;20267;-62
2021/04/17 08:50:31;;;;;;;53.07;30.70;;;;;;;7.33;100.00;95634.56;5092038;28;20204;-63
2021/04/17 08:53:03;;;;;;;33.67;22.23;;;;;;;7.45;100.00;95631.66;5092248;28;20203;-63
2021/04/17 08:55:43;;;;;;;39.67;25.20;;;;;;;7.50;100.00;95626.47;5091328;28;20223;-61
2021/04/17 08:58:13;;;;;;;46.17;30.10;;;;;;;7.54;100.00;95609.34;5092917;28;20202;-63
2021/04/17 09:00:41;;;;;;;48.27;30.73;;;;;;;7.64;100.00;95614.44;5092527;28;20650;-63
2021/04/17 09:03:08;;;;;;;35.63;21.47;;;;;;;7.64;100.00;95622.22;5091042;28;20716;-63
2021/04/17 09:05:45;;;;;;;33.60;20.67;;;;;;;7.75;100.00;95610.75;5092240;28;20203;-61
2021/04/17 09:08:14;;;;;;;31.43;19.37;;;;;;;7.82;99.49;95612.25;5092894;28;20211;-62
2021/04/17 09:10:41;;;;;;;25.50;17.40;;;;;;;7.72;99.75;95606.09;5092077;28;20622;-62
2021/04/17 09:13:34;;;;;;;21.60;14.47;;;;;;;7.84;99.22;95603.16;5092393;28;20696;-62
2021/04/17 09:16:04;;;;;;;19.50;13.07;;;;;;;7.81;99.33;95598.53;5091303;28;20238;-62
2021/04/17 09:18:44;;;;;;;28.57;17.83;;;;;;;7.65;100.00;95597.91;5086514;28;20200;-63
2021/04/17 09:21:36;;;;;;;35.30;20.33;;;;;;;7.74;100.00;95593.66;5089695;28;20195;-62
2021/04/17 09:24:24;;;;;;;23.87;15.23;;;;;;;7.74;99.44;95587.72;5092018;28;20564;-64
2021/04/17 09:26:51;;;;;;;18.77;13.27;;;;;;;7.64;99.46;95593.75;5091871;28;20231;-63
2021/04/17 09:29:27;;;;;;;21.07;14.47;;;;;;;7.61;100.00;95585.78;5092278;28;20204;-61
2021/04/17 09:31:58;;;;;;;16.23;11.93;;;;;;;7.58;100.00;95587.09;5092077;28;20752;-63
2021/04/17 09:34:25;;;;;;;24.13;14.73;;;;;;;7.77;100.00;95582.78;5089671;28;20651;-63
2021/04/17 09:36:52;;;;;;;25.00;15.40;;;;;;;7.84;99.66;95581.69;5090924;28;20679;-63
2021/04/17 09:39:30;;;;;;;20.87;13.20;;;;;;;7.73;100.00;95586.19;5092247;28;20202;-63
2021/04/17 09:41:59;;;;;;;13.60;10.57;;;;;;;7.85;99.63;95581.41;5091807;28;20294;-62
2021/04/17 09:44:41;;;;;;;14.67;10.97;;;;;;;7.79;99.30;95585.09;5091706;28;20268;-63
2021/04/17 09:47:10;;;;;;;13.67;10.27;;;;;;;7.74;100.00;95567.03;5096910;28;20223;-64
2021/04/17 09:49:39;;;;;;;15.13;11.07;;;;;;;7.60;100.00;95566.91;5110772;28;20206;-63
2021/04/17 09:52:07;;;;;;;24.30;17.93;;;;;;;7.60;100.00;95561.72;5112019;28;20715;-63
2021/04/17 09:54:35;;;;;;;15.60;12.27;;;;;;;7.58;100.00;95573.38;5111218;28;20202;-64
2021/04/17 09:57:09;;;;;;;15.60;11.43;;;;;;;7.73;100.00;95574.03;5111558;28;20211;-62
2021/04/17 09:59:37;;;;;;;13.93;10.00;;;;;;;7.74;100.00;95565.22;5111806;28;20191;-63
2021/04/17 10:02:05;;;;;;;12.80;10.17;;;;;;;7.78;100.00;95563.63;5111478;28;20235;-64
2021/04/17 10:04:48;;;;;;;13.57;9.90;;;;;;;7.82;100.00;95563.09;5110081;28;20195;-63
2021/04/17 10:07:15;;;;;;;11.00;8.23;;;;;;;7.82;100.00;95561.25;5111813;28;20267;-63
2021/04/17 10:09:43;;;;;;;14.23;10.27;;;;;;;7.94;100.00;95556.50;5111385;28;20294;-62
2021/04/17 10:12:13;;;;;;;13.33;9.60;;;;;;;7.91;100.00;95557.03;5111505;28;20202;-62
2021/04/17 10:14:41;;;;;;;11.67;8.60;;;;;;;7.98;100.00;95562.66;5110769;28;20198;-63
2021/04/17 10:17:08;;;;;;;8.33;7.17;;;;;;;8.03;99.59;95564.41;5110180;28;20230;-62
2021/04/17 10:19:35;;;;;;;7.23;6.50;;;;;;;7.95;100.00;95572.78;5110331;28;20263;-62
2021/04/17 10:22:02;;;;;;;11.47;8.50;;;;;;;7.92;100.00;95563.00;5111586;28;20555;-62
2021/04/17 10:24:31;;;;;;;13.90;9.00;;;;;;;7.83;99.88;95565.38;5110493;28;20191;-63
2021/04/17 10:27:04;;;;;;;12.83;8.80;;;;;;;7.90;99.86;95563.25;5111344;28;20309;-63
2021/04/17 10:29:39;;;;;;;10.23;7.17;;;;;;;7.86;99.76;95566.66;5110727;28;20222;-62
2021/04/17 10:32:12;;;;;;;11.93;9.20;;;;;;;7.82;100.00;95560.50;5111039;28;20191;-63
2021/04/17 10:34:39;;;;;;;15.97;10.60;;;;;;;7.85;99.79;95567.72;5111030;28;20222;-63
2021/04/17 10:37:08;;;;;;;16.70;9.60;;;;;;;7.77;100.00;95564.66;5110347;28;20649;-64
2021/04/17 10:39:35;;;;;;;14.27;10.47;;;;;;;7.77;100.00;95567.25;5110585;28;20195;-63
2021/04/17 10:42:06;;;;;;;21.37;15.67;;;;;;;7.81;100.00;95566.72;5111378;28;20222;-62
2021/04/17 10:44:34;;;;;;;21.30;14.20;;;;;;;7.74;100.00;95562.63;5110443;28;20554;-65
2021/04/17 10:47:03;;;;;;;23.20;13.93;;;;;;;7.86;99.72;95551.94;5110309;28;20712;-64
2021/04/17 10:49:36;;;;;;;21.93;14.83;;;;;;;7.69;100.00;95557.50;5108628;28;20658;-63
2021/04/17 10:52:06;;;;;;;28.17;15.87;;;;;;;7.70;100.00;95555.69;5111109;27;20203;-65
2021/04/17 10:54:33;;;;;;;27.50;15.30;;;;;;;7.74;99.14;95552.28;5110100;28;20544;-64
2021/04/17 10:57:03;;;;;;;31.10;17.87;;;;;;;7.70;100.00;95551.28;5109965;28;20286;-63
2021/04/17 10:59:51;;;;;;;15.57;11.30;;;;;;;7.63;100.00;95545.66;5110742;28;20199;-65
2021/04/17 11:02:27;;;;;;;15.00;10.47;;;;;;;7.63;100.00;95545.66;5110869;28;20187;-63
2021/04/17 11:04:57;;;;;;;13.50;8.87;;;;;;;7.57;99.90;95546.75;5109186;28;20290;-63
2021/04/17 11:07:31;;;;;;;15.00;9.50;;;;;;;7.64;99.70;95544.63;5110792;28;20279;-63
2021/04/17 11:09:58;;;;;;;12.30;8.40;;;;;;;7.65;99.59;95535.81;5110706;28;20191;-63
2021/04/17 11:12:27;;;;;;;16.67;9.10;;;;;;;7.59;99.10;95539.50;5110182;28;20187;-64
2021/04/17 11:15:13;;;;;;;18.47;11.70;;;;;;;7.51;99.74;95532.34;5110285;28;20195;-63
2021/04/17 11:17:40;;;;;;;18.07;12.47;;;;;;;7.62;99.58;95533.03;5109926;28;20555;-64
2021/04/17 11:20:22;;;;;;;22.63;13.80;;;;;;;7.63;99.11;95521.59;5109242;28;20203;-63
2021/04/17 11:22:49;;;;;;;64.27;31.60;;;;;;;7.57;99.11;95525.31;5110182;28;20682;-63
2021/04/17 11:25:15;;;;;;;65.80;35.10;;;;;;;7.59;99.75;95513.63;5109849;28;20198;-64
2021/04/17 11:27:42;;;;;;;19.23;10.70;;;;;;;7.63;97.82;95524.97;5110471;28;20571;-62
2021/04/17 11:30:11;;;;;;;17.30;11.70;;;;;;;7.61;98.23;95514.16;5109962;28;20244;-63
2021/04/17 11:32:38;;;;;;;16.73;10.37;;;;;;;7.65;98.21;95514.38;5109589;28;20187;-63
2021/04/17 11:35:07;;;;;;;16.43;11.10;;;;;;;7.68;98.53;95511.22;5108870;28;20195;-64
2021/04/17 11:37:35;;;;;;;15.60;9.27;;;;;;;7.68;99.07;95514.56;5109073;28;20234;-64